Time,TemperatureF,DewpointF,PressureIn,WindDirection,WindDirectionDegrees,WindSpeedMPH,WindSpeedGustMPH,Humidity,HourlyPrecipIn,Conditions,Clouds,dailyrainin,SoftwareType,DateUTC
2013-03-19 00:03:00,36.9,31.0,28.61,North,360,0.0,0.0,79,0.00,CLR,,0.00,WeatherDisplay:10.37,2013-03-19 05:03:00,
2013-03-19 00:08:00,36.9,30.7,28.61,North,360,0.0,0.0,78,0.00,CLR,,0.00,WeatherDisplay:10.37,2013-03-19 05:08:00,
2013-03-19 00:13:00,36.7,30.2,28.61,North,360,0.0,0.0,77,0.00,CLR,,0.00,WeatherDisplay:10.37,2013-03-19 05:13:00,
2013-03-19 00:18:00,36.7,30.2,28.61,North,360,0.0,0.0,77,0.00,CLR,,0.00,WeatherDisplay:10.37,2013-03-19 05:18:00,
2013-03-19 00:23:00,36.0,30.1,28.61,North,360,0.0,0.0,79,0.00,CLR,,0.00,WeatherDisplay:10.37,2013-03-19 05:23:00,
2013-03-19 00:29:00,35.8,30.8,28.61,South,180,0.0,0.0,82,0.00,CLR,,0.00,WeatherDisplay:10.37,2013-03-19 05:29:00,
2013-03-19 00:34:00,35.6,30.6,28.61,SSW,202,0.0,0.0,82,0.00,CLR,,0.00,WeatherDisplay:10.37,2013-03-19 05:34:00,
2013-03-19 00:39:00,35.4,30.5,28.61,SSE,158,0.0,0.0,82,0.00,CLR,,0.00,WeatherDisplay:10.37,2013-03-19 05:39:00,
2013-03-19 00:44:00,35.4,30.5,28.61,SSW,202,0.0,0.0,82,0.00,CLR,,0.00,WeatherDisplay:10.37,2013-03-19 05:44:00,
2013-03-19 00:49:00,35.2,30.3,28.62,SSE,158,0.0,0.0,82,0.00,CLR,,0.00,WeatherDisplay:10.37,2013-03-19 05:49:00,
2013-03-19 00:54:00,35.2,30.6,28.62,SSW,202,0.0,0.0,83,0.00,CLR,,0.00,WeatherDisplay:10.37,2013-03-19 05:54:00,
2013-03-19 00:59:00,35.1,30.8,28.62,SW,225,0.0,0.0,84,0.00,CLR,,0.00,WeatherDisplay:10.37,2013-03-19 05:59:00,
2013-03-19 01:04:00,34.7,30.7,28.62,SW,225,0.0,0.0,85,0.00,CLR,,0.00,WeatherDisplay:10.37,2013-03-19 06:04:00,
2013-03-19 01:09:00,34.5,30.5,28.62,NNW,338,0.0,0.0,85,0.00,CLR,,0.00,WeatherDisplay:10.37,2013-03-19 06:09:00,
2013-03-19 01:14:00,34.2,30.4,28.62,SSW,202,0.0,0.0,86,0.00,CLR,,0.00,WeatherDisplay:10.37,2013-03-19 06:14:00,
2013-03-19 01:19:00,33.6,29.9,28.62,NNE,22,0.0,0.0,86,0.00,CLR,,0.00,WeatherDisplay:10.37,2013-03-19 06:19:00,
2013-03-19 01:24:00,33.3,30.1,28.62,North,360,1.7,1.7,88,0.00,CLR,,0.00,WeatherDisplay:10.37,2013-03-19 06:24:00,
2013-03-19 01:29:00,32.9,29.7,28.61,SSE,158,0.0,0.0,88,0.00,CLR,,0.00,WeatherDisplay:10.37,2013-03-19 06:29:00,
2013-03-19 01:35:00,32.9,29.7,28.61,SSW,202,0.0,0.0,88,0.00,CLR,,0.00,WeatherDisplay:10.37,2013-03-19 06:35:00,
2013-03-19 01:40:00,32.5,29.3,28.59,NW,315,0.0,0.0,88,0.00,CLR,,0.00,WeatherDisplay:10.37,2013-03-19 06:40:00,
2013-03-19 01:45:00,32.4,29.2,28.59,SSW,202,0.0,0.0,88,0.00,CLR,,0.00,WeatherDisplay:10.37,2013-03-19 06:45:00,
2013-03-19 01:50:00,32.9,29.7,28.60,ENE,68,0.0,0.0,88,0.00,CLR,,0.00,WeatherDisplay:10.37,2013-03-19 06:50:00,
2013-03-19 01:55:00,33.3,30.1,28.60,North,360,0.0,0.0,88,0.00,CLR,,0.00,WeatherDisplay:10.37,2013-03-19 06:55:00,
2013-03-19 02:00:00,32.5,29.3,28.60,ESE,112,0.0,0.0,88,0.00,CLR,,0.00,WeatherDisplay:10.37,2013-03-19 07:00:00,
2013-03-19 02:05:00,32.4,29.2,28.60,SE,135,0.0,0.0,88,0.00,CLR,,0.00,WeatherDisplay:10.37,2013-03-19 07:05:00,
2013-03-19 02:10:00,32.2,29.9,28.60,NNE,22,0.0,0.0,91,0.00,CLR,,0.00,WeatherDisplay:10.37,2013-03-19 07:10:00,
2013-03-19 02:15:00,31.3,29.0,28.58,WNW,292,1.7,1.7,91,0.00,CLR,,0.00,WeatherDisplay:10.37,2013-03-19 07:15:00,
2013-03-19 02:20:00,31.1,29.0,28.58,NNE,22,1.7,1.7,92,0.00,CLR,,0.00,WeatherDisplay:10.37,2013-03-19 07:20:00,
2013-03-19 02:25:00,31.8,28.7,28.59,NW,315,2.3,2.3,88,0.00,CLR,,0.00,WeatherDisplay:10.37,2013-03-19 07:25:00,
2013-03-19 02:30:00,32.4,28.4,28.59,West,280,0.0,0.0,85,0.00,CLR,,0.00,WeatherDisplay:10.37,2013-03-19 07:30:00,
2013-03-19 02:35:00,32.4,28.4,28.59,South,184,0.0,0.0,85,0.00,CLR,,0.00,WeatherDisplay:10.37,2013-03-19 07:35:00,
2013-03-19 02:40:00,32.4,28.1,28.60,South,180,0.0,0.0,84,0.00,CLR,,0.00,WeatherDisplay:10.37,2013-03-19 07:40:00,
2013-03-19 02:45:00,32.1,27.5,28.60,South,185,0.0,1.0,83,0.00,CLR,,0.00,WeatherDisplay:10.37,2013-03-19 07:45:00,
2013-03-19 02:50:00,32.3,27.7,28.62,SSW,198,0.0,1.0,83,0.00,CLR,,0.00,WeatherDisplay:10.37,2013-03-19 07:50:00,
2013-03-19 02:55:00,33.2,28.6,28.62,NE,52,0.0,2.0,83,0.00,CLR,,0.00,WeatherDisplay:10.37,2013-03-19 07:55:00,
2013-03-19 03:00:00,33.1,28.5,28.62,North,1,0.0,0.0,83,0.00,CLR,,0.00,WeatherDisplay:10.37,2013-03-19 08:00:00,
2013-03-19 03:05:00,33.1,28.2,28.63,NNW,339,0.0,0.0,82,0.00,CLR,,0.00,WeatherDisplay:10.37,2013-03-19 08:05:00,
2013-03-19 03:10:00,32.7,27.8,28.63,NNW,338,0.0,0.0,82,0.00,CLR,,0.00,WeatherDisplay:10.37,2013-03-19 08:10:00,
2013-03-19 03:15:00,32.4,27.5,28.63,NNW,338,0.0,0.0,82,0.00,CLR,,0.00,WeatherDisplay:10.37,2013-03-19 08:15:00,
2013-03-19 03:20:00,33.1,28.8,28.63,NNW,338,0.0,0.0,84,0.00,CLR,,0.00,WeatherDisplay:10.37,2013-03-19 08:20:00,
2013-03-19 03:25:00,32.7,28.4,28.62,NW,315,0.0,0.0,84,0.00,CLR,,0.00,WeatherDisplay:10.37,2013-03-19 08:25:00,
2013-03-19 03:30:00,32.4,28.1,28.62,NW,315,0.0,0.0,84,0.00,CLR,,0.00,WeatherDisplay:10.37,2013-03-19 08:30:00,
2013-03-19 03:35:00,32.0,28.3,28.62,North,360,1.7,1.7,86,0.00,CLR,,0.00,WeatherDisplay:10.37,2013-03-19 08:35:00,
2013-03-19 03:40:00,32.0,28.3,28.61,North,360,1.7,1.7,86,0.00,CLR,,0.00,WeatherDisplay:10.37,2013-03-19 08:40:00,
2013-03-19 03:45:00,31.1,28.2,28.61,North,360,1.7,1.7,89,0.00,CLR,,0.00,WeatherDisplay:10.37,2013-03-19 08:45:00,
2013-03-19 03:50:00,31.6,28.5,28.61,NNW,338,2.3,2.3,88,0.00,CLR,,0.00,WeatherDisplay:10.37,2013-03-19 08:50:00,
2013-03-19 03:55:00,31.8,28.1,28.61,NNW,338,2.3,2.3,86,0.00,CLR,,0.00,WeatherDisplay:10.37,2013-03-19 08:55:00,
2013-03-19 04:00:00,31.8,28.1,28.61,NNE,22,2.3,2.3,86,0.00,CLR,,0.00,WeatherDisplay:10.37,2013-03-19 09:00:00,
2013-03-19 04:05:00,32.0,28.3,28.60,NW,315,2.7,2.7,86,0.00,CLR,,0.00,WeatherDisplay:10.37,2013-03-19 09:05:00,
2013-03-19 04:10:00,32.0,28.3,28.60,North,350,2.0,3.0,86,0.00,CLR,,0.00,WeatherDisplay:10.37,2013-03-19 09:10:00,
2013-03-19 04:15:00,32.8,28.2,28.60,North,359,1.0,2.0,83,0.00,CLR,,0.00,WeatherDisplay:10.37,2013-03-19 09:15:00,
2013-03-19 04:20:00,33.1,27.9,28.60,NW,315,1.2,1.2,81,0.00,CLR,,0.00,WeatherDisplay:10.37,2013-03-19 09:20:00,
2013-03-19 04:25:00,33.1,27.9,28.61,North,356,0.0,0.0,81,0.00,CLR,,0.00,WeatherDisplay:10.37,2013-03-19 09:25:00,
2013-03-19 04:30:00,33.6,28.4,28.61,ENE,68,0.0,0.0,81,0.00,CLR,,0.00,WeatherDisplay:10.37,2013-03-19 09:30:00,
2013-03-19 04:35:00,33.4,27.9,28.61,SSE,166,0.0,0.0,80,0.00,CLR,,0.00,WeatherDisplay:10.37,2013-03-19 09:35:00,
2013-03-19 04:40:00,33.2,27.7,28.62,SW,234,0.0,0.0,80,0.00,CLR,,0.00,WeatherDisplay:10.37,2013-03-19 09:40:00,
2013-03-19 04:45:00,34.3,28.5,28.62,NNE,15,0.0,0.0,79,0.00,CLR,,0.00,WeatherDisplay:10.37,2013-03-19 09:45:00,
2013-03-19 04:50:00,34.4,28.6,28.63,NNE,23,0.0,0.0,79,0.00,CLR,,0.00,WeatherDisplay:10.37,2013-03-19 09:50:00,
2013-03-19 04:55:00,34.3,29.1,28.63,NNE,22,0.0,0.0,81,0.00,CLR,,0.00,WeatherDisplay:10.37,2013-03-19 09:55:00,
2013-03-19 05:00:00,34.2,28.7,28.63,North,2,0.0,2.0,80,0.00,CLR,,0.00,WeatherDisplay:10.37,2013-03-19 10:00:00,
2013-03-19 05:05:00,34.3,28.5,28.63,NNW,340,2.0,3.0,79,0.00,CLR,,0.00,WeatherDisplay:10.37,2013-03-19 10:05:00,
2013-03-19 05:10:00,35.1,28.9,28.63,NNW,343,3.0,4.0,78,0.00,CLR,,0.00,WeatherDisplay:10.37,2013-03-19 10:10:00,
2013-03-19 05:15:00,35.6,29.1,28.63,NNW,346,3.0,4.0,77,0.00,CLR,,0.00,WeatherDisplay:10.37,2013-03-19 10:15:00,
2013-03-19 05:20:00,35.8,29.0,28.63,North,349,3.0,5.0,76,0.00,CLR,,0.00,WeatherDisplay:10.37,2013-03-19 10:20:00,
2013-03-19 05:25:00,35.8,29.0,28.64,NNW,347,3.0,5.0,76,0.00,CLR,,0.00,WeatherDisplay:10.37,2013-03-19 10:25:00,
2013-03-19 05:30:00,36.0,29.2,28.64,North,351,3.0,5.0,76,0.00,CLR,,0.00,WeatherDisplay:10.37,2013-03-19 10:30:00,
2013-03-19 05:35:00,35.8,29.0,28.64,North,358,2.0,5.0,76,0.00,CLR,,0.00,WeatherDisplay:10.37,2013-03-19 10:35:00,
2013-03-19 05:40:00,35.8,29.3,28.64,North,355,2.0,3.0,77,0.00,CLR,,0.00,WeatherDisplay:10.37,2013-03-19 10:40:00,
2013-03-19 05:45:00,35.4,28.9,28.64,NNW,342,1.0,3.0,77,0.00,CLR,,0.00,WeatherDisplay:10.37,2013-03-19 10:45:00,
2013-03-19 05:50:00,35.2,28.7,28.64,NNW,338,0.0,2.0,77,0.00,CLR,,0.00,WeatherDisplay:10.37,2013-03-19 10:50:00,
2013-03-19 05:55:00,34.9,28.4,28.64,SSW,202,0.0,0.0,77,0.00,CLR,,0.00,WeatherDisplay:10.37,2013-03-19 10:55:00,
2013-03-19 06:00:00,34.7,28.2,28.64,NNE,22,0.0,0.0,77,0.00,CLR,,0.00,WeatherDisplay:10.37,2013-03-19 11:00:00,
2013-03-19 06:05:00,34.3,27.8,28.65,NNW,338,0.0,0.0,77,0.00,CLR,,0.00,WeatherDisplay:10.37,2013-03-19 11:05:00,
2013-03-19 06:10:00,34.0,28.2,28.65,NNE,22,1.7,0.0,79,0.00,CLR,,0.00,WeatherDisplay:10.37,2013-03-19 11:10:00,
2013-03-19 06:15:00,33.8,28.6,28.66,NNE,22,0.0,0.0,81,0.00,CLR,,0.00,WeatherDisplay:10.37,2013-03-19 11:15:00,
2013-03-19 06:20:00,33.8,28.6,28.66,North,360,2.3,2.3,81,0.00,CLR,,0.00,WeatherDisplay:10.37,2013-03-19 11:20:00,
2013-03-19 06:25:00,33.8,28.0,28.66,West,270,2.7,2.7,79,0.00,CLR,,0.00,WeatherDisplay:10.37,2013-03-19 11:25:00,
2013-03-19 06:30:00,34.0,28.2,28.66,NW,315,3.2,3.2,79,0.00,CLR,,0.00,WeatherDisplay:10.37,2013-03-19 11:30:00,
2013-03-19 06:35:00,33.8,28.0,28.66,NW,315,2.3,2.3,79,0.00,CLR,,0.00,WeatherDisplay:10.37,2013-03-19 11:35:00,
2013-03-19 06:40:00,33.8,28.0,28.67,NNW,338,2.7,2.7,79,0.00,CLR,,0.00,WeatherDisplay:10.37,2013-03-19 11:40:00,
2013-03-19 06:45:00,34.0,27.9,28.67,NNE,22,2.3,2.3,78,0.00,CLR,,0.00,WeatherDisplay:10.37,2013-03-19 11:45:00,
2013-03-19 06:50:00,34.0,27.9,28.67,NNW,338,1.2,1.2,78,0.00,CLR,,0.00,WeatherDisplay:10.37,2013-03-19 11:50:00,
2013-03-19 06:55:00,33.8,27.4,28.67,SE,135,1.2,1.2,77,0.00,CLR,,0.00,WeatherDisplay:10.37,2013-03-19 11:55:00,
2013-03-19 07:00:00,33.6,27.5,28.67,South,180,0.0,0.0,78,0.00,CLR,,0.00,WeatherDisplay:10.37,2013-03-19 12:00:00,
2013-03-19 07:05:00,33.3,27.2,28.68,SSW,198,0.0,0.0,78,0.00,CLR,,0.00,WeatherDisplay:10.37,2013-03-19 12:05:00,
2013-03-19 07:10:00,32.9,26.5,28.68,SSW,202,0.0,0.0,77,0.00,CLR,,0.00,WeatherDisplay:10.37,2013-03-19 12:10:00,
2013-03-19 07:15:00,32.5,26.1,28.69,SE,135,0.0,0.0,77,0.00,CLR,,0.00,WeatherDisplay:10.37,2013-03-19 12:15:00,
2013-03-19 07:20:00,32.4,26.0,28.69,ESE,112,0.0,0.0,77,0.00,CLR,,0.00,WeatherDisplay:10.37,2013-03-19 12:20:00,
2013-03-19 07:25:00,32.4,26.0,28.70,ENE,68,0.0,0.0,77,0.00,CLR,,0.00,WeatherDisplay:10.37,2013-03-19 12:25:00,
2013-03-19 07:30:00,32.4,26.3,28.70,SSW,202,0.0,0.0,78,0.00,CLR,,0.00,WeatherDisplay:10.37,2013-03-19 12:30:00,
2013-03-19 07:35:00,32.4,26.6,28.70,South,180,0.0,0.0,79,0.00,CLR,,0.00,WeatherDisplay:10.37,2013-03-19 12:35:00,
2013-03-19 07:40:00,32.0,26.2,28.70,SSE,158,0.0,0.0,79,0.00,CLR,,0.00,WeatherDisplay:10.37,2013-03-19 12:40:00,
2013-03-19 07:45:00,31.8,26.0,28.70,SSE,158,0.0,0.0,79,0.00,CLR,,0.00,WeatherDisplay:10.37,2013-03-19 12:45:00,
2013-03-19 07:50:00,31.8,26.0,28.71,South,180,0.0,0.0,79,0.00,CLR,,0.00,WeatherDisplay:10.37,2013-03-19 12:50:00,
2013-03-19 07:55:00,32.4,27.2,28.71,SW,225,1.2,0.0,81,0.00,CLR,,0.00,WeatherDisplay:10.37,2013-03-19 12:55:00,
2013-03-19 08:00:00,32.5,27.3,28.71,SSE,158,0.0,0.0,81,0.00,CLR,,0.00,WeatherDisplay:10.37,2013-03-19 13:00:00,
2013-03-19 08:05:00,33.1,27.6,28.71,WNW,292,0.0,0.0,80,0.00,CLR,,0.00,WeatherDisplay:10.37,2013-03-19 13:05:00,
2013-03-19 08:10:00,33.6,28.1,28.71,SW,225,0.0,0.0,80,0.00,CLR,,0.00,WeatherDisplay:10.37,2013-03-19 13:10:00,
2013-03-19 08:15:00,34.0,27.9,28.71,West,270,2.3,2.3,78,0.00,CLR,,0.00,WeatherDisplay:10.37,2013-03-19 13:15:00,
2013-03-19 08:20:00,34.3,28.5,28.71,West,270,0.0,0.0,79,0.00,CLR,,0.00,WeatherDisplay:10.37,2013-03-19 13:20:00,
2013-03-19 08:25:00,34.3,28.5,28.72,East,90,0.0,0.0,79,0.00,CLR,,0.00,WeatherDisplay:10.37,2013-03-19 13:25:00,
2013-03-19 08:30:00,34.5,29.0,28.72,NE,45,1.2,0.0,80,0.00,CLR,,0.00,WeatherDisplay:10.37,2013-03-19 13:30:00,
2013-03-19 08:36:00,35.1,29.6,28.72,NE,45,1.2,1.2,80,0.00,CLR,,0.00,WeatherDisplay:10.37,2013-03-19 13:36:00,
2013-03-19 08:41:00,36.1,29.6,28.72,NW,315,3.5,3.5,77,0.00,CLR,,0.00,WeatherDisplay:10.37,2013-03-19 13:41:00,
2013-03-19 08:47:00,36.7,30.5,28.72,NNE,22,1.2,1.2,78,0.00,CLR,,0.00,WeatherDisplay:10.37,2013-03-19 13:47:00,
2013-03-19 08:52:00,36.7,30.2,28.72,North,360,1.1,1.1,77,0.00,CLR,,0.00,WeatherDisplay:10.37,2013-03-19 13:52:00,
2013-03-19 08:57:00,37.6,30.4,28.72,North,360,2.3,2.3,75,0.00,CLR,,0.00,WeatherDisplay:10.37,2013-03-19 13:57:00,
2013-03-19 09:02:00,37.9,30.7,28.73,North,360,3.2,3.2,75,0.00,CLR,,0.00,WeatherDisplay:10.37,2013-03-19 14:02:00,
2013-03-19 09:07:00,39.2,30.9,28.73,SE,135,3.5,3.5,72,0.00,CLR,,0.00,WeatherDisplay:10.37,2013-03-19 14:07:00,
2013-03-19 09:12:00,40.3,31.3,28.73,NW,315,2.7,2.7,70,0.00,CLR,,0.00,WeatherDisplay:10.37,2013-03-19 14:12:00,
2013-03-19 09:17:00,40.6,30.9,28.72,West,270,2.2,2.2,68,0.00,CLR,,0.00,WeatherDisplay:10.37,2013-03-19 14:17:00,
2013-03-19 09:22:00,40.6,29.4,28.72,SSW,202,1.2,1.2,64,0.00,CLR,,0.00,WeatherDisplay:10.37,2013-03-19 14:22:00,
2013-03-19 09:27:00,40.6,31.2,28.73,NNW,338,0.0,0.0,69,0.00,CLR,,0.00,WeatherDisplay:10.37,2013-03-19 14:27:00,
2013-03-19 09:32:00,41.4,30.9,28.73,NNE,22,1.7,1.7,66,0.00,CLR,,0.00,WeatherDisplay:10.37,2013-03-19 14:32:00,
2013-03-19 09:37:00,42.3,29.8,28.72,NNE,22,1.7,1.7,61,0.00,CLR,,0.00,WeatherDisplay:10.37,2013-03-19 14:37:00,
2013-03-19 09:42:00,43.2,29.4,28.72,NNE,22,3.5,3.5,58,0.00,CLR,,0.00,WeatherDisplay:10.37,2013-03-19 14:42:00,
2013-03-19 09:48:00,44.4,31.0,28.72,NW,315,4.6,4.6,59,0.00,CLR,,0.00,WeatherDisplay:10.37,2013-03-19 14:48:00,
2013-03-19 09:53:00,44.6,30.3,28.73,NW,315,3.7,3.7,57,0.00,CLR,,0.00,WeatherDisplay:10.37,2013-03-19 14:53:00,
2013-03-19 09:58:00,46.0,29.8,28.73,NNE,22,3.2,3.2,53,0.00,CLR,,0.00,WeatherDisplay:10.37,2013-03-19 14:58:00,
2013-03-19 10:03:00,46.4,31.5,28.74,WNW,292,2.7,2.7,56,0.00,CLR,,0.00,WeatherDisplay:10.37,2013-03-19 15:03:00,
2013-03-19 10:08:00,46.4,30.2,28.74,NNW,338,3.5,3.5,53,0.00,CLR,,0.00,WeatherDisplay:10.37,2013-03-19 15:08:00,
2013-03-19 10:13:00,47.5,29.8,28.75,NE,45,3.5,3.5,50,0.00,CLR,,0.00,WeatherDisplay:10.37,2013-03-19 15:13:00,
2013-03-19 10:18:00,47.7,30.0,28.75,NNE,22,4.6,4.6,50,0.00,CLR,,0.00,WeatherDisplay:10.37,2013-03-19 15:18:00,
2013-03-19 10:23:00,48.4,29.1,28.75,NW,315,3.5,3.5,47,0.00,CLR,,0.00,WeatherDisplay:10.37,2013-03-19 15:23:00,
2013-03-19 10:28:00,48.7,29.9,28.74,North,360,3.5,3.5,48,0.00,CLR,,0.00,WeatherDisplay:10.37,2013-03-19 15:28:00,
2013-03-19 10:33:00,48.7,27.7,28.74,North,360,3.7,3.7,44,0.00,CLR,,0.00,WeatherDisplay:10.37,2013-03-19 15:33:00,
2013-03-19 10:38:00,49.8,27.6,28.75,West,270,4.6,4.6,42,0.00,CLR,,0.00,WeatherDisplay:10.37,2013-03-19 15:38:00,
2013-03-19 10:43:00,50.4,27.0,28.75,East,90,3.5,3.5,40,0.00,CLR,,0.00,WeatherDisplay:10.37,2013-03-19 15:43:00,
2013-03-19 10:48:00,49.6,28.0,28.74,North,360,3.7,3.7,43,0.00,CLR,,0.00,WeatherDisplay:10.37,2013-03-19 15:48:00,
2013-03-19 10:53:00,49.6,26.8,28.74,NW,315,3.5,3.5,41,0.00,CLR,,0.00,WeatherDisplay:10.37,2013-03-19 15:53:00,
2013-03-19 10:58:00,50.4,26.3,28.74,NNE,22,4.6,4.6,39,0.00,CLR,,0.00,WeatherDisplay:10.37,2013-03-19 15:58:00,
2013-03-19 11:03:00,51.6,26.8,28.75,North,360,3.5,3.5,38,0.00,CLR,,0.00,WeatherDisplay:10.37,2013-03-19 16:03:00,
2013-03-19 11:08:00,51.4,23.2,28.75,SSE,158,4.6,4.6,33,0.00,CLR,,0.00,WeatherDisplay:10.37,2013-03-19 16:08:00,
2013-03-19 11:13:00,53.8,28.1,28.75,South,180,3.5,3.5,37,0.00,CLR,,0.00,WeatherDisplay:10.37,2013-03-19 16:13:00,
2013-03-19 11:19:00,53.4,26.4,28.75,WSW,248,3.7,3.7,35,0.00,CLR,,0.00,WeatherDisplay:10.37,2013-03-19 16:19:00,
2013-03-19 11:24:00,53.8,27.4,28.75,ENE,68,3.7,3.7,36,0.00,CLR,,0.00,WeatherDisplay:10.37,2013-03-19 16:24:00,
2013-03-19 11:29:00,53.2,24.8,28.75,WNW,292,3.2,3.2,33,0.00,CLR,,0.00,WeatherDisplay:10.37,2013-03-19 16:29:00,
2013-03-19 11:34:00,54.3,27.2,28.75,NE,45,2.7,2.7,35,0.00,CLR,,0.00,WeatherDisplay:10.37,2013-03-19 16:34:00,
2013-03-19 11:39:00,53.6,26.6,28.75,ESE,112,5.8,5.8,35,0.00,CLR,,0.00,WeatherDisplay:10.37,2013-03-19 16:39:00,
2013-03-19 11:44:00,53.2,25.5,28.75,West,270,2.7,2.7,34,0.00,CLR,,0.00,WeatherDisplay:10.37,2013-03-19 16:44:00,
2013-03-19 11:49:00,53.2,22.5,28.75,SW,225,4.2,4.2,30,0.00,CLR,,0.00,WeatherDisplay:10.37,2013-03-19 16:49:00,
2013-03-19 11:54:00,54.9,27.0,28.75,West,270,3.7,3.7,34,0.00,CLR,,0.00,WeatherDisplay:10.37,2013-03-19 16:54:00,
2013-03-19 11:59:00,54.5,26.7,28.75,SSW,202,6.9,6.9,34,0.00,CLR,,0.00,WeatherDisplay:10.37,2013-03-19 16:59:00,
2013-03-19 12:04:00,54.5,26.0,28.74,South,180,4.7,4.7,33,0.00,CLR,,0.00,WeatherDisplay:10.37,2013-03-19 17:04:00,
2013-03-19 12:09:00,55.0,27.8,28.74,WNW,292,4.6,4.6,35,0.00,CLR,,0.00,WeatherDisplay:10.37,2013-03-19 17:09:00,
2013-03-19 12:14:00,54.1,25.6,28.75,SE,135,5.8,5.8,33,0.00,CLR,,0.00,WeatherDisplay:10.37,2013-03-19 17:14:00,
2013-03-19 12:19:00,55.6,28.4,28.75,SE,135,5.8,5.8,35,0.00,CLR,,0.00,WeatherDisplay:10.37,2013-03-19 17:19:00,
2013-03-19 12:24:00,54.5,26.7,28.75,West,270,5.8,5.8,34,0.00,CLR,,0.00,WeatherDisplay:10.37,2013-03-19 17:24:00,
2013-03-19 12:29:00,55.2,27.3,28.74,West,270,6.3,6.3,34,0.00,CLR,,0.00,WeatherDisplay:10.37,2013-03-19 17:29:00,
2013-03-19 12:34:00,54.7,26.8,28.74,West,270,5.8,5.8,34,0.00,CLR,,0.00,WeatherDisplay:10.37,2013-03-19 17:34:00,
2013-03-19 12:39:00,54.7,27.6,28.74,SSE,158,2.3,2.3,35,0.00,CLR,,0.00,WeatherDisplay:10.37,2013-03-19 17:39:00,
2013-03-19 12:44:00,55.2,27.3,28.74,North,360,4.6,4.6,34,0.00,CLR,,0.00,WeatherDisplay:10.37,2013-03-19 17:44:00,
2013-03-19 12:49:00,55.6,27.6,28.73,South,180,5.3,5.3,34,0.00,CLR,,0.00,WeatherDisplay:10.37,2013-03-19 17:49:00,
2013-03-19 12:54:00,55.4,26.0,28.73,NNE,22,4.6,4.6,32,0.00,CLR,,0.00,WeatherDisplay:10.37,2013-03-19 17:54:00,
2013-03-19 12:59:00,55.2,27.3,28.73,South,180,5.8,5.8,34,0.00,CLR,,0.00,WeatherDisplay:10.37,2013-03-19 17:59:00,
2013-03-19 13:04:00,56.5,26.2,28.73,SSW,202,3.5,3.5,31,0.00,CLR,,0.00,WeatherDisplay:10.37,2013-03-19 18:04:00,
2013-03-19 13:09:00,56.7,24.8,28.73,North,360,3.5,3.5,29,0.00,CLR,,0.00,WeatherDisplay:10.37,2013-03-19 18:09:00,
2013-03-19 13:14:00,56.1,25.1,28.73,NNE,22,3.5,3.5,30,0.00,CLR,,0.00,WeatherDisplay:10.37,2013-03-19 18:14:00,
2013-03-19 13:19:00,55.0,22.4,28.73,NNW,338,2.7,2.7,28,0.00,CLR,,0.00,WeatherDisplay:10.37,2013-03-19 18:19:00,
2013-03-19 13:24:00,54.7,24.6,28.72,NNE,22,5.8,5.8,31,0.00,CLR,,0.00,WeatherDisplay:10.37,2013-03-19 18:24:00,
2013-03-19 13:29:00,55.9,24.9,28.72,North,360,2.7,2.7,30,0.00,CLR,,0.00,WeatherDisplay:10.37,2013-03-19 18:29:00,
2013-03-19 13:34:00,55.4,24.4,28.72,East,90,5.8,5.8,30,0.00,CLR,,0.00,WeatherDisplay:10.37,2013-03-19 18:34:00,
2013-03-19 13:39:00,55.4,23.6,28.72,NNW,338,3.5,3.5,29,0.00,CLR,,0.00,WeatherDisplay:10.37,2013-03-19 18:39:00,
2013-03-19 13:45:00,55.8,23.1,28.72,WSW,248,8.1,8.1,28,0.00,CLR,,0.00,WeatherDisplay:10.37,2013-03-19 18:45:00,
2013-03-19 13:50:00,56.0,24.2,28.71,South,173,3.0,6.0,29,0.00,CLR,,0.00,WeatherDisplay:10.37,2013-03-19 18:50:00,
2013-03-19 13:55:00,56.2,23.5,28.71,SSE,155,3.0,6.0,28,0.00,CLR,,0.00,WeatherDisplay:10.37,2013-03-19 18:55:00,
2013-03-19 14:00:00,57.0,24.2,28.71,East,93,3.0,6.0,28,0.00,CLR,,0.00,WeatherDisplay:10.37,2013-03-19 19:00:00,
2013-03-19 14:05:00,56.3,26.0,28.72,NNE,20,6.0,7.0,31,0.00,CLR,,0.00,WeatherDisplay:10.37,2013-03-19 19:05:00,
2013-03-19 14:10:00,57.7,25.6,28.72,NW,322,3.0,7.0,29,0.00,CLR,,0.00,WeatherDisplay:10.37,2013-03-19 19:10:00,
2013-03-19 14:15:00,57.0,25.8,28.71,West,264,2.0,7.0,30,0.00,CLR,,0.00,WeatherDisplay:10.37,2013-03-19 19:15:00,
2013-03-19 14:20:00,57.3,25.3,28.71,WSW,257,2.0,6.0,29,0.00,CLR,,0.00,WeatherDisplay:10.37,2013-03-19 19:20:00,
2013-03-19 14:25:00,57.9,25.8,28.71,WNW,298,5.0,8.0,29,0.00,CLR,,0.00,WeatherDisplay:10.37,2013-03-19 19:25:00,
2013-03-19 14:30:00,58.1,23.3,28.70,SSW,203,2.0,8.0,26,0.00,CLR,,0.00,WeatherDisplay:10.37,2013-03-19 19:30:00,
2013-03-19 14:35:00,58.9,25.8,28.70,SW,222,0.0,3.0,28,0.00,CLR,,0.00,WeatherDisplay:10.37,2013-03-19 19:35:00,
2013-03-19 14:40:00,59.4,26.2,28.70,WNW,283,5.0,7.0,28,0.00,CLR,,0.00,WeatherDisplay:10.37,2013-03-19 19:40:00,
2013-03-19 14:45:00,58.6,25.6,28.70,West,270,4.7,4.7,28,0.00,CLR,,0.00,WeatherDisplay:10.37,2013-03-19 19:45:00,
2013-03-19 14:50:00,57.7,23.9,28.69,WSW,248,3.7,3.7,27,0.00,CLR,,0.00,WeatherDisplay:10.37,2013-03-19 19:50:00,
2013-03-19 14:55:00,58.3,25.3,28.69,SW,225,2.3,2.3,28,0.00,CLR,,0.00,WeatherDisplay:10.37,2013-03-19 19:55:00,
2013-03-19 15:00:00,58.3,23.5,28.69,South,180,2.3,2.3,26,0.00,CLR,,0.00,WeatherDisplay:10.37,2013-03-19 20:00:00,
2013-03-19 15:05:00,58.6,24.7,28.68,WNW,292,3.5,3.5,27,0.00,CLR,,0.00,WeatherDisplay:10.37,2013-03-19 20:05:00,
2013-03-19 15:10:00,58.3,27.0,28.68,NNW,338,4.7,4.7,30,0.00,CLR,,0.00,WeatherDisplay:10.37,2013-03-19 20:10:00,
2013-03-19 15:15:00,57.9,25.8,28.68,NNE,22,3.5,3.5,29,0.00,CLR,,0.00,WeatherDisplay:10.37,2013-03-19 20:15:00,
2013-03-19 15:20:00,57.7,26.4,28.68,North,360,2.7,2.7,30,0.00,CLR,,0.00,WeatherDisplay:10.37,2013-03-19 20:20:00,
2013-03-19 15:25:00,58.5,25.5,28.68,West,270,4.6,4.6,28,0.00,CLR,,0.00,WeatherDisplay:10.37,2013-03-19 20:25:00,
2013-03-19 15:30:00,57.0,25.0,28.68,North,360,3.7,3.7,29,0.00,CLR,,0.00,WeatherDisplay:10.37,2013-03-19 20:30:00,
2013-03-19 15:35:00,57.2,26.0,28.68,NNE,22,4.6,4.6,30,0.00,CLR,,0.00,WeatherDisplay:10.37,2013-03-19 20:35:00,
2013-03-19 15:40:00,56.7,26.4,28.68,NNE,22,5.8,5.8,31,0.00,CLR,,0.00,WeatherDisplay:10.37,2013-03-19 20:40:00,
2013-03-19 15:45:00,57.4,26.2,28.68,West,270,3.5,3.5,30,0.00,CLR,,0.00,WeatherDisplay:10.37,2013-03-19 20:45:00,
2013-03-19 15:50:00,58.1,26.0,28.67,SE,135,3.5,3.5,29,0.00,CLR,,0.00,WeatherDisplay:10.37,2013-03-19 20:50:00,
2013-03-19 15:55:00,57.7,27.2,28.67,North,360,3.5,3.5,31,0.00,CLR,,0.00,WeatherDisplay:10.37,2013-03-19 20:55:00,
2013-03-19 16:00:00,57.6,27.2,28.67,ESE,112,2.3,2.3,31,0.00,CLR,,0.00,WeatherDisplay:10.37,2013-03-19 21:00:00,
2013-03-19 16:05:00,57.7,26.4,28.68,West,270,3.5,3.5,30,0.00,CLR,,0.00,WeatherDisplay:10.37,2013-03-19 21:05:00,
2013-03-19 16:10:00,57.6,27.2,28.68,SW,225,2.2,2.2,31,0.00,CLR,,0.00,WeatherDisplay:10.37,2013-03-19 21:10:00,
2013-03-19 16:15:00,57.0,23.3,28.68,WSW,248,2.3,2.3,27,0.00,CLR,,0.00,WeatherDisplay:10.37,2013-03-19 21:15:00,
2013-03-19 16:20:00,56.8,23.1,28.68,NNW,338,1.7,1.7,27,0.00,CLR,,0.00,WeatherDisplay:10.37,2013-03-19 21:20:00,
2013-03-19 16:25:00,56.3,23.6,28.68,North,360,2.3,2.3,28,0.00,CLR,,0.00,WeatherDisplay:10.37,2013-03-19 21:25:00,
2013-03-19 16:30:00,57.0,25.8,28.68,North,360,5.8,5.8,30,0.00,CLR,,0.00,WeatherDisplay:10.37,2013-03-19 21:30:00,
2013-03-19 16:35:00,56.8,25.7,28.68,NNE,22,3.5,3.5,30,0.00,CLR,,0.00,WeatherDisplay:10.37,2013-03-19 21:35:00,
2013-03-19 16:40:00,56.8,27.2,28.68,NE,45,4.6,4.6,32,0.00,CLR,,0.00,WeatherDisplay:10.37,2013-03-19 21:40:00,
2013-03-19 16:45:00,55.9,25.7,28.68,NNE,22,4.6,4.6,31,0.00,CLR,,0.00,WeatherDisplay:10.37,2013-03-19 21:45:00,
2013-03-19 16:50:00,55.9,24.9,28.68,NNW,338,4.6,4.6,30,0.00,CLR,,0.00,WeatherDisplay:10.37,2013-03-19 21:50:00,
2013-03-19 16:56:00,56.1,25.1,28.68,North,360,3.5,3.5,30,0.00,CLR,,0.00,WeatherDisplay:10.37,2013-03-19 21:56:00,
2013-03-19 17:01:00,55.9,26.4,28.68,NNE,22,4.6,4.6,32,0.00,CLR,,0.00,WeatherDisplay:10.37,2013-03-19 22:01:00,
2013-03-19 17:06:00,55.2,25.8,28.68,NNE,22,5.8,5.8,32,0.00,CLR,,0.00,WeatherDisplay:10.37,2013-03-19 22:06:00,
2013-03-19 17:12:00,55.9,26.4,28.68,NNW,338,3.7,3.7,32,0.00,CLR,,0.00,WeatherDisplay:10.37,2013-03-19 22:12:00,
2013-03-19 17:17:00,55.6,24.6,28.69,North,360,3.7,3.7,30,0.00,CLR,,0.00,WeatherDisplay:10.37,2013-03-19 22:17:00,
2013-03-19 17:22:00,55.2,26.6,28.69,NNE,22,3.5,3.5,33,0.00,CLR,,0.00,WeatherDisplay:10.37,2013-03-19 22:22:00,
2013-03-19 17:27:00,55.9,27.9,28.69,NNW,338,2.3,2.3,34,0.00,CLR,,0.00,WeatherDisplay:10.37,2013-03-19 22:27:00,
2013-03-19 17:32:00,55.8,26.3,28.69,NNW,338,1.2,1.3,32,0.00,CLR,,0.00,WeatherDisplay:10.37,2013-03-19 22:32:00,
2013-03-19 17:37:00,56.1,27.4,28.69,North,360,2.7,2.7,33,0.00,CLR,,0.00,WeatherDisplay:10.37,2013-03-19 22:37:00,
2013-03-19 17:42:00,55.2,26.6,28.69,NNE,22,5.8,5.8,33,0.00,CLR,,0.00,WeatherDisplay:10.37,2013-03-19 22:42:00,
2013-03-19 17:47:00,54.7,26.1,28.69,NE,45,4.7,4.7,33,0.00,CLR,,0.00,WeatherDisplay:10.37,2013-03-19 22:47:00,
2013-03-19 17:52:00,54.9,25.6,28.69,NNE,22,2.3,2.3,32,0.00,CLR,,0.00,WeatherDisplay:10.37,2013-03-19 22:52:00,
2013-03-19 17:57:00,54.5,26.0,28.69,North,360,2.3,2.3,33,0.00,CLR,,0.00,WeatherDisplay:10.37,2013-03-19 22:57:00,
2013-03-19 18:02:00,54.7,27.6,28.69,North,360,3.7,3.7,35,0.00,CLR,,0.00,WeatherDisplay:10.37,2013-03-19 23:02:00,
2013-03-19 18:07:00,54.3,26.5,28.69,NNE,22,2.3,2.3,34,0.00,CLR,,0.00,WeatherDisplay:10.37,2013-03-19 23:07:00,
2013-03-19 18:12:00,54.0,26.9,28.69,North,360,5.3,5.3,35,0.00,CLR,,0.00,WeatherDisplay:10.37,2013-03-19 23:12:00,
2013-03-19 18:17:00,50.7,27.8,28.69,NNE,22,15.0,15.0,41,0.00,CLR,,0.00,WeatherDisplay:10.37,2013-03-19 23:17:00,
2013-03-19 18:22:00,49.1,27.0,28.69,NNE,22,9.2,9.2,42,0.00,CLR,,0.00,WeatherDisplay:10.37,2013-03-19 23:22:00,
2013-03-19 18:28:00,48.4,28.0,28.70,NNE,22,9.2,9.2,45,0.00,CLR,,0.00,WeatherDisplay:10.37,2013-03-19 23:28:00,
2013-03-19 18:33:00,48.2,27.3,28.70,NNE,22,9.4,9.4,44,0.00,CLR,,0.00,WeatherDisplay:10.37,2013-03-19 23:33:00,
2013-03-19 18:38:00,47.8,27.5,28.71,NNE,22,8.3,8.3,45,0.00,CLR,,0.00,WeatherDisplay:10.37,2013-03-19 23:38:00,
2013-03-19 18:43:00,47.7,27.4,28.71,North,360,10.4,10.4,45,0.00,CLR,,0.00,WeatherDisplay:10.37,2013-03-19 23:43:00,
2013-03-19 18:48:00,47.5,27.7,28.71,North,360,6.3,6.3,46,0.00,CLR,,0.00,WeatherDisplay:10.37,2013-03-19 23:48:00,
2013-03-19 18:53:00,47.1,26.8,28.71,NE,45,11.4,11.4,45,0.00,CLR,,0.00,WeatherDisplay:10.37,2013-03-19 23:53:00,
2013-03-19 18:58:00,46.8,26.6,28.71,NNW,338,8.1,8.1,45,0.00,CLR,,0.00,WeatherDisplay:10.37,2013-03-19 23:58:00,
2013-03-19 19:03:00,46.6,26.9,28.71,NNE,22,7.3,7.3,46,0.00,CLR,,0.00,WeatherDisplay:10.37,2013-03-20 00:03:00,
2013-03-19 19:08:00,46.6,26.9,28.71,NNE,22,7.3,7.3,46,0.00,CLR,,0.00,WeatherDisplay:10.37,2013-03-20 00:08:00,
2013-03-19 19:13:00,46.0,26.4,28.72,North,360,8.1,8.1,46,0.00,CLR,,0.00,WeatherDisplay:10.37,2013-03-20 00:13:00,
2013-03-19 19:18:00,45.7,26.1,28.72,North,360,6.9,6.9,46,0.00,CLR,,0.00,WeatherDisplay:10.37,2013-03-20 00:18:00,
2013-03-19 19:23:00,45.3,26.7,28.72,NNE,22,5.8,5.8,48,0.00,CLR,,0.00,WeatherDisplay:10.37,2013-03-20 00:23:00,
2013-03-19 19:28:00,45.1,26.6,28.73,NNE,22,9.2,9.2,48,0.00,CLR,,0.00,WeatherDisplay:10.37,2013-03-20 00:28:00,
2013-03-19 19:33:00,45.0,26.5,28.73,ENE,68,9.2,9.2,48,0.00,CLR,,0.00,WeatherDisplay:10.37,2013-03-20 00:33:00,
2013-03-19 19:38:00,45.0,27.0,28.73,NW,315,7.3,7.3,49,0.00,CLR,,0.00,WeatherDisplay:10.37,2013-03-20 00:38:00,
2013-03-19 19:43:00,44.8,27.3,28.73,NNE,22,6.9,6.9,50,0.00,CLR,,0.00,WeatherDisplay:10.37,2013-03-20 00:43:00,
2013-03-19 19:48:00,44.6,26.6,28.73,NE,45,8.1,8.1,49,0.00,CLR,,0.00,WeatherDisplay:10.37,2013-03-20 00:48:00,
2013-03-19 19:53:00,44.4,26.9,28.73,NNW,338,7.3,7.3,50,0.00,CLR,,0.00,WeatherDisplay:10.37,2013-03-20 00:53:00,
2013-03-19 19:58:00,44.4,27.4,28.73,NNE,22,6.3,6.3,51,0.00,CLR,,0.00,WeatherDisplay:10.37,2013-03-20 00:58:00,
2013-03-19 20:03:00,44.2,27.2,28.73,NNW,338,6.9,6.9,51,0.00,CLR,,0.00,WeatherDisplay:10.37,2013-03-20 01:03:00,
2013-03-19 20:08:00,44.1,27.1,28.73,North,360,7.3,7.3,51,0.00,CLR,,0.00,WeatherDisplay:10.37,2013-03-20 01:08:00,
2013-03-19 20:14:00,44.1,27.6,28.74,North,360,8.3,8.3,52,0.00,CLR,,0.00,WeatherDisplay:10.37,2013-03-20 01:14:00,
2013-03-19 20:19:00,43.9,27.4,28.74,NNE,22,6.8,6.8,52,0.00,CLR,,0.00,WeatherDisplay:10.37,2013-03-20 01:19:00,
2013-03-19 20:24:00,43.7,27.2,28.74,NNE,22,7.8,7.8,52,0.00,CLR,,0.00,WeatherDisplay:10.37,2013-03-20 01:24:00,
2013-03-19 20:29:00,43.5,27.0,28.74,NNE,22,8.3,8.3,52,0.00,CLR,,0.00,WeatherDisplay:10.37,2013-03-20 01:29:00,
2013-03-19 20:34:00,43.3,26.8,28.74,North,360,8.1,8.1,52,0.00,CLR,,0.00,WeatherDisplay:10.37,2013-03-20 01:34:00,
2013-03-19 20:39:00,43.3,26.8,28.75,NNE,22,9.2,9.2,52,0.00,CLR,,0.00,WeatherDisplay:10.37,2013-03-20 01:39:00,
2013-03-19 20:44:00,43.2,26.7,28.75,NNE,22,8.3,8.3,52,0.00,CLR,,0.00,WeatherDisplay:10.37,2013-03-20 01:44:00,
2013-03-19 20:49:00,42.8,26.8,28.75,NNW,338,6.3,6.3,53,0.00,CLR,,0.00,WeatherDisplay:10.37,2013-03-20 01:49:00,
2013-03-19 20:54:00,42.8,26.4,28.75,NNE,22,6.3,6.3,52,0.00,CLR,,0.00,WeatherDisplay:10.37,2013-03-20 01:54:00,
2013-03-19 20:59:00,42.6,26.6,28.75,NNE,22,5.8,5.8,53,0.00,CLR,,0.00,WeatherDisplay:10.37,2013-03-20 01:59:00,
2013-03-19 21:05:00,42.6,27.1,28.76,North,360,9.4,9.4,54,0.00,CLR,,0.00,WeatherDisplay:10.37,2013-03-20 02:05:00,
2013-03-19 21:10:00,42.6,27.1,28.76,NNE,22,13.8,13.8,54,0.00,CLR,,0.00,WeatherDisplay:10.37,2013-03-20 02:10:00,
2013-03-19 21:15:00,42.3,27.3,28.77,North,360,7.3,7.3,55,0.00,CLR,,0.00,WeatherDisplay:10.37,2013-03-20 02:15:00,
2013-03-19 21:20:00,42.3,27.7,28.77,NNE,22,8.3,8.3,56,0.00,CLR,,0.00,WeatherDisplay:10.37,2013-03-20 02:20:00,
2013-03-19 21:25:00,42.1,27.5,28.77,WNW,292,7.3,7.3,56,0.00,CLR,,0.00,WeatherDisplay:10.37,2013-03-20 02:25:00,
2013-03-19 21:30:00,41.9,27.8,28.77,North,360,6.9,6.9,57,0.00,CLR,,0.00,WeatherDisplay:10.37,2013-03-20 02:30:00,
2013-03-19 21:35:00,41.7,28.0,28.77,North,355,7.0,8.0,58,0.00,CLR,,0.00,WeatherDisplay:10.37,2013-03-20 02:35:00,
2013-03-19 21:40:00,41.5,27.8,28.78,North,349,6.0,8.0,58,0.00,CLR,,0.00,WeatherDisplay:10.37,2013-03-20 02:40:00,
2013-03-19 21:45:00,41.4,28.1,28.78,North,351,8.0,9.0,59,0.00,CLR,,0.00,WeatherDisplay:10.37,2013-03-20 02:45:00,
2013-03-19 21:50:00,41.4,28.5,28.78,North,7,6.0,7.0,60,0.00,CLR,,0.00,WeatherDisplay:10.37,2013-03-20 02:50:00,
2013-03-19 21:55:00,41.2,28.4,28.78,North,2,6.0,6.0,60,0.00,CLR,,0.00,WeatherDisplay:10.37,2013-03-20 02:55:00,
2013-03-19 22:00:00,41.1,28.6,28.78,North,1,5.0,8.0,61,0.00,CLR,,0.00,WeatherDisplay:10.37,2013-03-20 03:00:00,
2013-03-19 22:05:00,41.0,28.6,28.78,NNE,12,5.0,6.0,61,0.00,CLR,,0.00,WeatherDisplay:10.37,2013-03-20 03:05:00,
2013-03-19 22:10:00,40.8,28.8,28.78,NNE,12,5.0,6.0,62,0.00,CLR,,0.00,WeatherDisplay:10.37,2013-03-20 03:10:00,
2013-03-19 22:15:00,40.8,28.8,28.79,North,11,5.0,7.0,62,0.00,CLR,,0.00,WeatherDisplay:10.37,2013-03-20 03:15:00,
2013-03-19 22:20:00,40.6,28.6,28.79,North,8,3.0,5.0,62,0.00,CLR,,0.00,WeatherDisplay:10.37,2013-03-20 03:20:00,
2013-03-19 22:25:00,40.6,29.0,28.79,North,353,3.0,6.0,63,0.00,CLR,,0.00,WeatherDisplay:10.37,2013-03-20 03:25:00,
2013-03-19 22:30:00,40.5,28.9,28.79,North,360,3.5,3.5,63,0.00,CLR,,0.00,WeatherDisplay:10.37,2013-03-20 03:30:00,
2013-03-19 22:35:00,40.3,28.7,28.79,NNE,22,2.3,2.3,63,0.00,CLR,,0.00,WeatherDisplay:10.37,2013-03-20 03:35:00,
2013-03-19 22:40:00,40.1,29.3,28.80,ENE,68,3.5,3.5,65,0.00,CLR,,0.00,WeatherDisplay:10.37,2013-03-20 03:40:00,
2013-03-19 22:45:00,39.9,29.1,28.80,North,360,3.2,3.2,65,0.00,CLR,,0.00,WeatherDisplay:10.37,2013-03-20 03:45:00,
2013-03-19 22:50:00,39.7,28.9,28.80,SW,225,1.2,0.0,65,0.00,CLR,,0.00,WeatherDisplay:10.37,2013-03-20 03:50:00,
2013-03-19 22:55:00,39.6,29.2,28.80,NNE,22,3.5,3.5,66,0.00,CLR,,0.00,WeatherDisplay:10.37,2013-03-20 03:55:00,
2013-03-19 23:00:00,39.6,29.5,28.80,NNE,22,0.0,0.0,67,0.00,CLR,,0.00,WeatherDisplay:10.37,2013-03-20 04:00:00,
2013-03-19 23:01:00,39.4,29.3,28.79,North,360,1.7,1.7,67,0.00,CLR,,0.00,WeatherDisplay:10.37,2013-03-20 04:01:00,
2013-03-19 23:02:00,39.2,29.2,28.79,NNW,338,2.3,2.3,67,0.00,CLR,,0.00,WeatherDisplay:10.37,2013-03-20 04:02:00,
2013-03-19 23:07:00,39.0,28.6,28.79,NNW,338,1.1,1.1,66,0.00,CLR,,0.00,WeatherDisplay:10.37,2013-03-20 04:07:00,
2013-03-19 23:12:00,39.0,28.6,28.79,NNE,22,1.2,0.0,66,0.00,CLR,,0.00,WeatherDisplay:10.37,2013-03-20 04:12:00,
2013-03-19 23:17:00,38.7,28.3,28.80,WNW,292,0.0,0.0,66,0.00,CLR,,0.00,WeatherDisplay:10.37,2013-03-20 04:17:00,
2013-03-19 23:22:00,38.5,28.9,28.80,ESE,112,0.0,0.0,68,0.00,CLR,,0.00,WeatherDisplay:10.37,2013-03-20 04:22:00,
2013-03-19 23:27:00,38.3,28.3,28.80,West,270,0.0,0.0,67,0.00,CLR,,0.00,WeatherDisplay:10.37,2013-03-20 04:27:00,
2013-03-19 23:32:00,37.9,29.0,28.80,NW,315,0.0,0.0,70,0.00,CLR,,0.00,WeatherDisplay:10.37,2013-03-20 04:32:00,
2013-03-19 23:37:00,37.8,28.9,28.81,NNW,338,0.0,0.0,70,0.00,CLR,,0.00,WeatherDisplay:10.37,2013-03-20 04:37:00,
2013-03-19 23:42:00,38.1,28.8,28.81,NNW,338,0.0,0.0,69,0.00,CLR,,0.00,WeatherDisplay:10.37,2013-03-20 04:42:00,
2013-03-19 23:47:00,38.1,28.8,28.81,NNW,338,0.0,0.0,69,0.00,CLR,,0.00,WeatherDisplay:10.37,2013-03-20 04:47:00,
2013-03-19 23:52:00,37.9,29.0,28.81,NNW,338,0.0,0.0,70,0.00,CLR,,0.00,WeatherDisplay:10.37,2013-03-20 04:52:00,
2013-03-19 23:57:00,37.9,29.0,28.81,NNW,338,1.7,1.7,70,0.00,CLR,,0.00,WeatherDisplay:10.37,2013-03-20 04:57:00,